Airfield :
LOGIN :

Register | Disclaimer

   EN    FR    IT 

 










Legend :    VFR   Marginal VFR   IFR   Intensive IFR   Very Intensive IFR
Visi :
Ceiling :
>= 8 km
>= 3000ft
5 to 8 km
1000 to 3000 ft
1500m to 5 km
500 to 1000 ft
800 to 1500m
200 to 500 ft
< 800m
< 200 ft
Symbols :   Thunderstorms  Fog  Heavy snow  Heavy precipitations  Wind > 20 kt
SIGMETs :     Misc.  Thunderstorms  Icing  Turbulence  Mountain Waves  Volcanic Ashes






- Airport Elevation : 19 ft
- IATA code : VTS


EVVA - Ventspils Int.

CURRENT METAR :
  • 041520Z AUTO 10004KT 7000 SCT008 SCT014 BKN022 M01/M01 Q1031

EXPIRED METARs :
  • 041450Z AUTO 08004KT 8000 BKN008 OVC030 M01/M01 Q1031
  • 041420Z AUTO 08004KT 9000 BKN008 OVC032 M01/M01 Q1031
  • 041350Z AUTO 09005KT 9000 FEW008 OVC033 M01/M01 Q1031
  • 041320Z AUTO 08003KT 9000 BKN008 OVC033 M01/M01 Q1031
  • 041250Z AUTO 08004KT 9000 OVC009 M01/M01 Q1031

Expired Forecast.



MET'MAP, your aeronautical weather chart ! - Copyright ORBIFLY December 2007 - Disclaimer

ORBIFLY MET'MAP TEAM :

Programming & Development : Alexandra Zaïnal
Original concept : Baudouin d'Aumeries
Technical & hardware support : Manuel Goepfert
Assistance : Marc-Olivier Méhu




SOURCES & CREDITS :

   NOAA